createdAt,value
2018-09-19T00:01:25.831Z,19.10
2018-09-19T00:06:20.306Z,19.10
2018-09-19T00:11:15.136Z,19.00
2018-09-19T00:16:10.123Z,19.00
2018-09-19T00:21:04.710Z,18.80
2018-09-19T00:25:59.213Z,18.80
2018-09-19T00:30:54.015Z,18.70
2018-09-19T00:35:48.734Z,18.70
2018-09-19T00:40:43.245Z,18.70
2018-09-19T00:45:37.705Z,18.60
2018-09-19T00:50:32.203Z,18.50
2018-09-19T00:55:26.693Z,18.40
2018-09-19T01:00:21.346Z,18.30
2018-09-19T01:05:15.909Z,18.20
2018-09-19T01:10:10.584Z,18.10
2018-09-19T01:15:05.154Z,18.00
2018-09-19T01:19:59.932Z,17.90
2018-09-19T01:24:57.167Z,17.80
2018-09-19T01:29:52.341Z,17.70
2018-09-19T01:34:46.923Z,17.70
2018-09-19T01:39:41.414Z,17.60
2018-09-19T01:44:36.034Z,17.60
2018-09-19T01:49:30.640Z,17.50
2018-09-19T01:54:26.005Z,17.50
2018-09-19T01:59:20.622Z,17.50
2018-09-19T02:04:15.412Z,17.60
2018-09-19T02:09:12.158Z,17.50
2018-09-19T02:14:07.312Z,17.50
2018-09-19T02:19:02.091Z,17.40
2018-09-19T02:23:56.798Z,17.40
2018-09-19T02:28:51.334Z,17.30
2018-09-19T02:33:46.250Z,17.30
2018-09-19T02:38:40.720Z,17.20
2018-09-19T02:43:35.192Z,17.10
2018-09-19T02:48:29.692Z,17.10
2018-09-19T02:53:24.317Z,17.10
2018-09-19T02:58:18.795Z,17.10
2018-09-19T03:03:13.262Z,17.10
2018-09-19T03:08:07.874Z,17.10
2018-09-19T03:13:02.348Z,17.00
2018-09-19T03:17:56.904Z,17.00
2018-09-19T03:22:51.476Z,17.00
2018-09-19T03:27:45.969Z,16.90
2018-09-19T03:32:40.682Z,16.90
2018-09-19T03:37:35.171Z,16.90
2018-09-19T03:42:29.650Z,16.90
2018-09-19T03:47:24.129Z,17.00
2018-09-19T03:52:18.583Z,17.00
2018-09-19T03:57:13.138Z,17.00
2018-09-19T04:02:07.600Z,17.00
2018-09-19T04:07:02.410Z,17.00
2018-09-19T04:11:56.909Z,17.10
2018-09-19T04:16:51.398Z,17.00
2018-09-19T04:21:49.526Z,17.10
2018-09-19T04:26:44.017Z,17.00
2018-09-19T04:31:38.495Z,17.00
2018-09-19T04:36:33.017Z,17.10
2018-09-19T04:41:27.516Z,17.10
2018-09-19T04:46:22.011Z,17.00
2018-09-19T04:51:16.589Z,16.90
2018-09-19T04:56:11.357Z,16.90
2018-09-19T05:01:05.876Z,16.80
2018-09-19T05:06:00.367Z,16.80
2018-09-19T05:10:54.818Z,16.80
2018-09-19T05:15:49.441Z,16.90
2018-09-19T05:20:43.907Z,17.00
2018-09-19T05:25:38.576Z,17.00
2018-09-19T05:30:33.070Z,17.10
2018-09-19T05:35:27.578Z,17.20
2018-09-19T05:40:22.092Z,17.30
2018-09-19T05:45:16.593Z,17.30
2018-09-19T05:50:11.044Z,17.40
2018-09-19T05:55:05.673Z,17.50
2018-09-19T06:00:00.331Z,17.60
2018-09-19T06:04:54.840Z,17.80
2018-09-19T06:09:50.008Z,18.00
2018-09-19T06:14:45.391Z,18.20
2018-09-19T06:19:40.028Z,18.30
2018-09-19T06:24:34.686Z,18.50
2018-09-19T06:29:29.321Z,18.70
2018-09-19T06:34:24.230Z,18.90
2018-09-19T06:39:18.834Z,21.00
2018-09-19T06:44:14.351Z,23.20
2018-09-19T06:49:08.833Z,24.70
2018-09-19T06:54:03.677Z,25.50
2018-09-19T06:59:00.088Z,26.50
2018-09-19T07:03:56.382Z,27.70
2018-09-19T07:08:50.850Z,28.80
2018-09-19T07:13:45.703Z,30.80
2018-09-19T07:18:40.934Z,32.30
2018-09-19T07:23:35.886Z,34.00
2018-09-19T07:28:31.732Z,35.60
2018-09-19T07:33:26.733Z,36.80
2018-09-19T07:38:21.778Z,37.50
2018-09-19T07:43:17.455Z,38.90
2018-09-19T07:48:12.255Z,39.90
2018-09-19T07:53:07.203Z,41.20
2018-09-19T07:58:02.451Z,42.20
2018-09-19T08:02:57.440Z,43.10
2018-09-19T08:07:52.858Z,44.30
2018-09-19T08:12:48.090Z,44.00
2018-09-19T08:17:43.044Z,44.60
2018-09-19T08:22:37.786Z,45.20
2018-09-19T08:27:32.927Z,46.30
2018-09-19T08:32:28.265Z,46.80
2018-09-19T08:37:23.390Z,46.70
2018-09-19T08:42:18.394Z,44.20
2018-09-19T08:47:13.581Z,42.40
2018-09-19T08:52:08.685Z,42.50
2018-09-19T08:57:03.430Z,45.10
2018-09-19T09:01:58.566Z,48.40
2018-09-19T09:06:53.372Z,51.40
2018-09-19T09:11:48.287Z,52.20
2018-09-19T09:16:43.039Z,53.50
2018-09-19T09:21:38.024Z,54.40
2018-09-19T09:26:32.966Z,55.20
2018-09-19T09:31:27.912Z,55.40
2018-09-19T09:36:22.849Z,55.00
2018-09-19T09:41:17.844Z,52.80
2018-09-19T09:46:12.647Z,50.60
2018-09-19T09:51:07.379Z,45.30
2018-09-19T09:56:02.259Z,40.50
2018-09-19T10:00:57.034Z,37.90
2018-09-19T10:05:51.979Z,36.20
2018-09-19T10:10:46.769Z,35.00
2018-09-19T10:15:41.490Z,33.80
2018-09-19T10:20:36.542Z,32.90
2018-09-19T10:25:31.373Z,32.40
2018-09-19T10:30:26.403Z,31.80
2018-09-19T10:35:21.317Z,31.70
2018-09-19T10:40:17.281Z,31.60
2018-09-19T10:45:13.367Z,31.00
2018-09-19T10:50:08.224Z,30.60
2018-09-19T10:55:02.970Z,30.00
2018-09-19T10:59:57.695Z,29.80
2018-09-19T11:04:52.440Z,29.50
2018-09-19T11:09:47.210Z,29.60
2018-09-19T11:14:41.961Z,29.60
2018-09-19T11:19:36.695Z,29.40
2018-09-19T11:24:31.456Z,29.20
2018-09-19T11:29:27.259Z,29.10
2018-09-19T11:34:21.976Z,28.90
2018-09-19T11:39:16.758Z,28.80
2018-09-19T11:44:11.609Z,28.90
2018-09-19T11:49:06.661Z,29.20
2018-09-19T11:54:01.408Z,29.50
2018-09-19T11:58:56.504Z,29.70
2018-09-19T12:03:51.230Z,29.70
2018-09-19T12:08:45.993Z,29.90
2018-09-19T12:13:41.310Z,29.90
2018-09-19T12:18:36.150Z,29.80
2018-09-19T12:23:30.922Z,29.80
2018-09-19T12:28:25.869Z,29.70
2018-09-19T12:33:20.675Z,29.70
2018-09-19T12:38:15.636Z,29.70
2018-09-19T12:43:10.463Z,29.80
2018-09-19T12:48:05.369Z,29.80
2018-09-19T12:53:01.028Z,29.80
2018-09-19T12:57:55.736Z,30.00
2018-09-19T13:02:50.862Z,30.10
2018-09-19T13:07:45.761Z,30.20
2018-09-19T13:12:41.309Z,30.10
2018-09-19T13:17:36.164Z,30.20
2018-09-19T13:22:31.132Z,30.10
2018-09-19T13:27:25.924Z,30.10
2018-09-19T13:32:21.281Z,30.00
2018-09-19T13:37:15.994Z,30.00
2018-09-19T13:42:11.173Z,30.00
2018-09-19T13:47:06.517Z,29.90
2018-09-19T13:52:01.324Z,29.80
2018-09-19T13:56:56.086Z,29.60
2018-09-19T14:01:51.077Z,29.50
2018-09-19T14:06:45.808Z,29.50
2018-09-19T14:11:40.605Z,29.40
2018-09-19T14:16:35.502Z,29.30
2018-09-19T14:21:30.242Z,29.20
2018-09-19T14:26:25.740Z,29.20
2018-09-19T14:31:20.490Z,29.10
2018-09-19T14:36:15.321Z,29.20
2018-09-19T14:41:10.314Z,29.10
2018-09-19T14:46:05.857Z,29.10
2018-09-19T14:51:00.685Z,29.10
2018-09-19T14:55:55.458Z,29.10
2018-09-19T15:00:50.797Z,29.10
2018-09-19T15:05:45.822Z,29.00
2018-09-19T15:10:40.805Z,28.90
2018-09-19T15:15:35.762Z,28.80
2018-09-19T15:20:30.917Z,28.70
2018-09-19T15:25:25.953Z,28.70
2018-09-19T15:30:20.885Z,28.60
2018-09-19T15:35:15.708Z,28.60
2018-09-19T15:40:10.473Z,28.50
2018-09-19T15:45:05.543Z,28.40
2018-09-19T15:50:00.304Z,28.40
2018-09-19T15:54:55.751Z,28.30
2018-09-19T15:59:53.435Z,28.20
2018-09-19T16:04:49.210Z,28.10
2018-09-19T16:09:44.368Z,28.00
2018-09-19T16:14:39.327Z,27.80
2018-09-19T16:19:34.920Z,27.80
2018-09-19T16:24:29.654Z,27.70
2018-09-19T16:29:24.406Z,27.60
2018-09-19T16:34:19.183Z,27.40
2018-09-19T16:39:14.270Z,27.40
2018-09-19T16:44:09.068Z,27.20
2018-09-19T16:49:04.746Z,27.10
2018-09-19T16:54:00.425Z,26.90
2018-09-19T16:58:55.803Z,26.80
2018-09-19T17:03:50.557Z,26.70
2018-09-19T17:08:45.054Z,26.50
2018-09-19T17:13:39.549Z,26.40
2018-09-19T17:18:34.192Z,26.20
2018-09-19T17:23:28.670Z,26.00
2018-09-19T17:28:23.249Z,25.80
2018-09-19T17:33:18.239Z,25.60
2018-09-19T17:38:12.992Z,25.50
2018-09-19T17:43:08.032Z,25.30
2018-09-19T17:48:02.510Z,25.20
2018-09-19T17:52:57.255Z,25.10
2018-09-19T17:57:51.818Z,24.90
2018-09-19T18:02:46.308Z,24.70
2018-09-19T18:07:40.773Z,24.50
2018-09-19T18:12:46.055Z,24.40
2018-09-19T18:17:44.103Z,24.20
2018-09-19T18:22:53.072Z,24.10
2018-09-19T18:27:47.597Z,23.90
2018-09-19T18:32:42.895Z,23.80
2018-09-19T18:37:37.741Z,23.70
2018-09-19T18:42:32.867Z,23.60
2018-09-19T18:47:27.776Z,23.40
2018-09-19T18:52:22.434Z,23.30
2018-09-19T18:57:17.000Z,23.10
2018-09-19T19:02:11.661Z,23.00
2018-09-19T19:07:06.444Z,22.90
2018-09-19T19:12:01.269Z,22.70
2018-09-19T19:16:56.147Z,22.60
2018-09-19T19:21:50.866Z,22.50
2018-09-19T19:26:45.386Z,22.40
2018-09-19T19:31:39.865Z,22.30
2018-09-19T19:36:34.785Z,22.20
2018-09-19T19:41:29.420Z,22.10
2018-09-19T19:46:24.227Z,21.90
2018-09-19T19:51:18.912Z,21.80
2018-09-19T19:56:13.430Z,21.70
2018-09-19T20:01:08.366Z,21.60
2018-09-19T20:06:03.003Z,21.50
2018-09-19T20:10:57.555Z,21.30
2018-09-19T20:15:52.261Z,21.20
2018-09-19T20:20:46.809Z,21.10
2018-09-19T20:25:41.419Z,21.10
2018-09-19T20:30:36.394Z,21.00
2018-09-19T20:35:30.928Z,20.80
2018-09-19T20:40:27.431Z,20.70
2018-09-19T20:45:21.933Z,20.60
2018-09-19T20:50:16.491Z,20.50
2018-09-19T20:55:11.034Z,20.40
2018-09-19T21:00:06.298Z,20.30
2018-09-19T21:05:01.042Z,20.30
2018-09-19T21:09:57.076Z,20.30
2018-09-19T21:14:52.477Z,20.30
2018-09-19T21:19:47.091Z,20.30
2018-09-19T21:24:41.689Z,20.40
2018-09-19T21:29:36.226Z,20.30
2018-09-19T21:34:30.770Z,20.20
2018-09-19T21:39:25.443Z,20.10
2018-09-19T21:44:20.400Z,20.10
2018-09-19T21:49:16.302Z,20.10
2018-09-19T21:54:10.772Z,20.10
2018-09-19T21:59:05.453Z,20.10
2018-09-19T22:04:00.034Z,20.00
2018-09-19T22:08:55.118Z,20.00
2018-09-19T22:13:49.607Z,19.80
2018-09-19T22:18:44.300Z,19.70
2018-09-19T22:23:38.846Z,19.60
2018-09-19T22:28:35.794Z,19.50
2018-09-19T22:33:30.265Z,19.40
2018-09-19T22:38:24.816Z,19.40
2018-09-19T22:43:19.664Z,19.40
2018-09-19T22:48:14.327Z,19.30
2018-09-19T22:53:08.981Z,19.20
2018-09-19T22:58:03.688Z,19.10
2018-09-19T23:02:58.162Z,19.00
2018-09-19T23:07:52.937Z,18.90
2018-09-19T23:12:47.439Z,18.80
2018-09-19T23:17:41.953Z,18.70
2018-09-19T23:22:36.787Z,18.70
2018-09-19T23:27:31.446Z,18.70
2018-09-19T23:32:25.886Z,18.60
2018-09-19T23:37:21.013Z,18.60
2018-09-19T23:42:15.476Z,18.60
2018-09-19T23:47:09.956Z,18.60
2018-09-19T23:52:04.590Z,18.60
2018-09-19T23:56:59.090Z,18.60
